createdAt,value
2023-11-02T00:09:34.527Z,86.50
2023-11-02T00:14:45.318Z,86.60
2023-11-02T00:19:48.217Z,86.00
2023-11-02T00:24:52.974Z,85.90
2023-11-02T00:29:55.872Z,86.20
2023-11-02T00:34:59.030Z,86.20
2023-11-02T00:40:04.297Z,86.50
2023-11-02T00:45:09.191Z,86.70
2023-11-02T00:51:05.962Z,86.70
2023-11-02T00:56:12.528Z,87.20
2023-11-02T01:01:18.095Z,87.00
2023-11-02T01:06:24.396Z,87.20
2023-11-02T01:11:37.635Z,87.40
2023-11-02T01:16:41.613Z,87.90
2023-11-02T01:21:44.840Z,87.60
2023-11-02T01:27:07.567Z,87.60
2023-11-02T01:32:13.165Z,87.80
2023-11-02T01:37:16.174Z,87.70
2023-11-02T01:42:33.133Z,87.60
2023-11-02T01:47:54.253Z,88.10
2023-11-02T01:53:29.278Z,88.40
2023-11-02T01:59:03.631Z,88.10
2023-11-02T02:04:23.147Z,88.10
2023-11-02T02:09:59.709Z,88.50
2023-11-02T02:15:15.807Z,88.20
2023-11-02T02:20:23.751Z,88.20
2023-11-02T02:25:39.399Z,88.70
2023-11-02T02:31:14.099Z,88.50
2023-11-02T02:36:26.074Z,88.70
2023-11-02T02:41:35.206Z,88.60
2023-11-02T02:46:40.102Z,88.70
2023-11-02T02:51:50.547Z,88.80
2023-11-02T02:56:57.842Z,89.00
2023-11-02T03:02:01.297Z,88.70
2023-11-02T03:07:08.137Z,88.70
2023-11-02T03:12:14.773Z,88.70
2023-11-02T03:17:31.021Z,88.80
2023-11-02T03:22:37.379Z,88.80
2023-11-02T03:28:06.231Z,88.70
2023-11-02T03:33:25.122Z,88.90
2023-11-02T03:39:10.680Z,88.80
2023-11-02T03:44:28.815Z,89.00
2023-11-02T03:49:45.798Z,88.90
2023-11-02T03:55:16.774Z,89.10
2023-11-02T04:00:23.423Z,89.20
2023-11-02T04:05:27.917Z,89.20
2023-11-02T04:10:36.352Z,89.20
2023-11-02T04:15:39.974Z,89.20
2023-11-02T04:20:43.609Z,89.30
2023-11-02T04:25:48.302Z,89.30
2023-11-02T04:30:51.756Z,89.30
2023-11-02T04:35:55.031Z,89.20
2023-11-02T04:40:59.505Z,89.20
2023-11-02T04:46:02.716Z,89.20
2023-11-02T04:51:06.561Z,89.40
2023-11-02T04:56:11.378Z,89.30
2023-11-02T05:01:14.271Z,89.20
2023-11-02T05:06:17.368Z,89.20
2023-11-02T05:11:21.766Z,88.90
2023-11-02T05:16:24.870Z,89.40
2023-11-02T05:21:30.216Z,89.30
2023-11-02T05:26:35.132Z,89.30
2023-11-02T05:31:38.174Z,89.50
2023-11-02T05:36:41.519Z,89.60
2023-11-02T05:41:46.097Z,89.90
2023-11-02T05:46:49.126Z,90.00
2023-11-02T05:51:52.489Z,89.80
2023-11-02T05:56:56.842Z,89.90
2023-11-02T06:01:59.979Z,90.00
2023-11-02T06:07:03.406Z,89.90
2023-11-02T06:12:08.732Z,90.00
2023-11-02T06:17:11.969Z,89.90
2023-11-02T06:22:15.208Z,89.60
2023-11-02T06:27:22.148Z,89.80
2023-11-02T06:32:25.180Z,89.80
2023-11-02T06:37:28.119Z,89.70
2023-11-02T06:42:32.444Z,90.00
2023-11-02T06:47:35.557Z,90.00
2023-11-02T06:52:38.414Z,89.70
2023-11-02T06:57:42.674Z,89.80
2023-11-02T07:02:45.792Z,90.00
2023-11-02T07:07:48.878Z,89.80
2023-11-02T07:12:53.287Z,89.40
2023-11-02T07:17:56.552Z,89.20
2023-11-02T07:22:59.651Z,88.90
2023-11-02T07:28:04.248Z,88.70
2023-11-02T07:33:07.309Z,88.30
2023-11-02T07:38:10.157Z,88.00
2023-11-02T07:43:14.721Z,87.90
2023-11-02T07:48:17.689Z,87.60
2023-11-02T07:53:23.304Z,87.90
2023-11-02T07:58:27.869Z,87.20
2023-11-02T08:03:30.899Z,87.20
2023-11-02T08:08:33.862Z,86.80
2023-11-02T08:13:38.605Z,86.40
2023-11-02T08:18:41.792Z,86.20
2023-11-02T08:23:44.771Z,85.70
2023-11-02T08:28:51.753Z,85.10
2023-11-02T08:33:55.204Z,84.50
2023-11-02T08:38:59.378Z,84.40
2023-11-02T08:44:04.588Z,84.70
2023-11-02T08:49:07.711Z,84.20
2023-11-02T08:54:10.894Z,83.90
2023-11-02T08:59:15.411Z,83.70
2023-11-02T09:04:18.283Z,83.20
2023-11-02T09:09:21.337Z,83.10
2023-11-02T09:14:26.358Z,82.40
2023-11-02T09:19:29.540Z,82.40
2023-11-02T09:24:32.424Z,82.20
2023-11-02T09:29:36.607Z,82.10
2023-11-02T09:34:39.591Z,81.50
2023-11-02T09:39:42.550Z,81.10
2023-11-02T09:44:47.938Z,80.50
2023-11-02T09:49:50.861Z,80.40
2023-11-02T09:54:54.260Z,80.30
2023-11-02T09:59:59.224Z,80.30
2023-11-02T10:05:03.895Z,79.40
2023-11-02T10:10:09.197Z,79.40
2023-11-02T10:15:15.004Z,79.00
2023-11-02T10:20:19.283Z,78.90
2023-11-02T10:25:22.118Z,79.00
2023-11-02T10:30:26.988Z,78.40
2023-11-02T10:35:29.868Z,77.50
2023-11-02T10:40:53.493Z,77.60
2023-11-02T10:45:58.151Z,77.10
2023-11-02T10:51:04.388Z,76.90
2023-11-02T10:56:16.104Z,77.00
2023-11-02T11:01:22.874Z,76.80
2023-11-02T11:06:27.558Z,76.30
2023-11-02T11:11:34.028Z,75.40
2023-11-02T11:16:41.343Z,75.80
2023-11-02T11:21:45.275Z,75.90
2023-11-02T11:26:51.642Z,76.10
2023-11-02T11:31:56.005Z,75.40
2023-11-02T11:37:35.954Z,74.30
2023-11-02T11:42:57.206Z,73.40
2023-11-02T11:48:03.360Z,73.60
2023-11-02T11:53:15.961Z,72.50
2023-11-02T11:58:47.880Z,72.40
2023-11-02T12:03:52.253Z,71.30
2023-11-02T12:08:55.367Z,71.70
2023-11-02T12:13:59.123Z,72.30
2023-11-02T12:19:04.006Z,72.10
2023-11-02T12:24:12.951Z,72.60
2023-11-02T12:29:16.082Z,72.60
2023-11-02T12:34:20.763Z,72.60
2023-11-02T12:39:23.746Z,72.90
2023-11-02T12:44:27.000Z,72.40
2023-11-02T12:49:34.168Z,72.80
2023-11-02T12:54:37.710Z,72.60
2023-11-02T12:59:42.091Z,72.80
2023-11-02T13:04:54.679Z,72.40
2023-11-02T13:10:06.459Z,72.50
2023-11-02T13:15:12.340Z,72.30
2023-11-02T13:20:17.910Z,71.60
2023-11-02T13:25:21.061Z,71.10
2023-11-02T13:30:24.942Z,71.10
2023-11-02T13:35:29.671Z,71.00
2023-11-02T13:40:32.468Z,71.00
2023-11-02T13:45:35.803Z,71.40
2023-11-02T13:50:41.435Z,71.40
2023-11-02T13:55:45.188Z,71.40
2023-11-02T14:00:49.440Z,71.40
2023-11-02T14:05:54.287Z,71.40
2023-11-02T14:10:57.426Z,71.70
2023-11-02T14:16:00.208Z,71.90
2023-11-02T14:21:05.465Z,72.00
2023-11-02T14:26:08.293Z,71.60
2023-11-02T14:31:11.209Z,71.70
2023-11-02T14:36:15.408Z,72.30
2023-11-02T14:41:18.312Z,72.50
2023-11-02T14:46:21.193Z,73.00
2023-11-02T14:51:25.745Z,72.90
2023-11-02T14:56:28.874Z,73.10
2023-11-02T15:01:33.073Z,73.50
2023-11-02T15:06:37.448Z,73.80
2023-11-02T15:11:40.474Z,74.10
2023-11-02T15:16:44.849Z,74.30
2023-11-02T15:21:49.454Z,74.60
2023-11-02T15:26:52.392Z,74.90
2023-11-02T15:31:55.362Z,75.00
2023-11-02T15:37:00.147Z,75.30
2023-11-02T15:42:03.545Z,75.30
2023-11-02T15:47:06.891Z,75.40
2023-11-02T15:52:11.326Z,75.70
2023-11-02T15:57:14.329Z,75.90
2023-11-02T16:02:17.252Z,76.00
2023-11-02T16:07:21.961Z,76.40
2023-11-02T16:12:24.919Z,76.60
2023-11-02T16:17:28.003Z,76.80
2023-11-02T16:22:32.537Z,76.90
2023-11-02T16:27:35.516Z,77.40
2023-11-02T16:32:38.509Z,78.10
2023-11-02T16:37:42.992Z,77.40
2023-11-02T16:42:45.925Z,77.50
2023-11-02T16:47:48.796Z,77.50
2023-11-02T16:52:53.084Z,77.60
2023-11-02T16:57:56.072Z,77.80
2023-11-02T17:02:59.051Z,77.90
2023-11-02T17:08:04.358Z,78.00
2023-11-02T17:13:07.323Z,78.40
2023-11-02T17:18:10.254Z,78.70
2023-11-02T17:23:14.565Z,79.10
2023-11-02T17:28:17.827Z,79.30
2023-11-02T17:33:20.690Z,79.30
2023-11-02T17:38:25.008Z,79.50
2023-11-02T17:43:28.104Z,79.50
2023-11-02T17:48:31.074Z,79.30
2023-11-02T17:53:35.897Z,79.20
2023-11-02T17:58:38.782Z,79.30
2023-11-02T18:03:41.532Z,79.50
2023-11-02T18:08:45.830Z,79.80
2023-11-02T18:13:48.927Z,79.70
2023-11-02T18:18:51.905Z,79.90
2023-11-02T18:23:56.332Z,79.70
2023-11-02T18:28:59.466Z,79.90
2023-11-02T18:34:02.454Z,79.70
2023-11-02T18:39:06.874Z,79.80
2023-11-02T18:44:09.830Z,80.10
2023-11-02T18:49:12.709Z,80.30
2023-11-02T18:54:16.949Z,80.40
2023-11-02T18:59:19.780Z,80.40
2023-11-02T19:04:22.645Z,80.00
2023-11-02T19:09:27.512Z,80.00
2023-11-02T19:14:32.726Z,79.70
2023-11-02T19:19:35.947Z,79.50
2023-11-02T19:24:43.562Z,79.70
2023-11-02T19:29:46.723Z,79.70
2023-11-02T19:34:49.600Z,79.70
2023-11-02T19:39:53.790Z,79.40
2023-11-02T19:44:56.807Z,79.00
2023-11-02T19:49:59.721Z,79.00
2023-11-02T19:55:04.234Z,78.80
2023-11-02T20:00:09.265Z,78.70
2023-11-02T20:05:15.636Z,78.80
2023-11-02T20:10:20.029Z,78.70
2023-11-02T20:15:22.828Z,78.50
2023-11-02T20:20:26.034Z,78.40
2023-11-02T20:25:30.368Z,78.10
2023-11-02T20:30:33.351Z,77.70
2023-11-02T20:35:36.377Z,77.70
2023-11-02T20:40:42.433Z,77.40
2023-11-02T20:45:45.412Z,77.40
2023-11-02T20:50:48.619Z,77.40
2023-11-02T20:55:53.291Z,76.90
2023-11-02T21:00:56.366Z,76.90
2023-11-02T21:06:01.952Z,76.70
2023-11-02T21:11:06.514Z,76.50
2023-11-02T21:16:09.532Z,76.60
2023-11-02T21:21:12.501Z,76.20
2023-11-02T21:26:16.931Z,76.20
2023-11-02T21:31:19.739Z,75.70
2023-11-02T21:36:22.600Z,75.70
2023-11-02T21:41:27.197Z,75.60
2023-11-02T21:46:32.443Z,75.40
2023-11-02T21:51:36.502Z,75.50
2023-11-02T21:56:40.885Z,75.20
2023-11-02T22:01:44.198Z,75.00
2023-11-02T22:06:48.352Z,74.70
2023-11-02T22:11:52.758Z,74.90
2023-11-02T22:16:55.860Z,74.80
2023-11-02T22:21:59.077Z,74.80
2023-11-02T22:27:03.940Z,74.80
2023-11-02T22:32:07.506Z,74.50
2023-11-02T22:37:14.112Z,74.70
2023-11-02T22:42:19.222Z,74.80
2023-11-02T22:47:22.478Z,74.50
2023-11-02T22:52:25.679Z,74.70
2023-11-02T22:57:29.958Z,74.70
2023-11-02T23:02:32.798Z,74.70
2023-11-02T23:07:35.851Z,74.70
2023-11-02T23:12:40.162Z,74.80
2023-11-02T23:17:43.163Z,74.70
2023-11-02T23:22:46.075Z,74.70
2023-11-02T23:27:50.382Z,74.70
2023-11-02T23:32:53.328Z,74.80
2023-11-02T23:37:56.217Z,74.60
2023-11-02T23:43:00.586Z,74.80
2023-11-02T23:48:03.927Z,74.80
2023-11-02T23:53:06.683Z,74.60
2023-11-02T23:58:10.910Z,74.70
